sensor_id;sensor_type;location;lat;lon;timestamp;P1;durP1;ratioP1;P2;durP2;ratioP2
3309;SDS011;1667;53.238;10.394;2023-05-14T00:01:57;5.07;;;4.67;;
3309;SDS011;1667;53.238;10.394;2023-05-14T00:06:57;9.63;;;5.50;;
3309;SDS011;1667;53.238;10.394;2023-05-14T00:11:55;5.03;;;4.53;;
3309;SDS011;1667;53.238;10.394;2023-05-14T00:16:54;6.70;;;5.00;;
3309;SDS011;1667;53.238;10.394;2023-05-14T00:21:53;5.13;;;4.60;;
3309;SDS011;1667;53.238;10.394;2023-05-14T00:26:53;7.00;;;5.07;;
3309;SDS011;1667;53.238;10.394;2023-05-14T00:31:51;5.60;;;4.47;;
3309;SDS011;1667;53.238;10.394;2023-05-14T00:36:50;5.43;;;4.47;;
3309;SDS011;1667;53.238;10.394;2023-05-14T00:41:48;4.80;;;4.30;;
3309;SDS011;1667;53.238;10.394;2023-05-14T00:46:48;5.80;;;4.37;;
3309;SDS011;1667;53.238;10.394;2023-05-14T00:51:47;4.97;;;4.47;;
3309;SDS011;1667;53.238;10.394;2023-05-14T00:56:46;4.53;;;3.80;;
3309;SDS011;1667;53.238;10.394;2023-05-14T01:01:45;5.73;;;4.20;;
3309;SDS011;1667;53.238;10.394;2023-05-14T01:06:54;4.83;;;4.23;;
3309;SDS011;1667;53.238;10.394;2023-05-14T01:12:02;5.83;;;4.97;;
3309;SDS011;1667;53.238;10.394;2023-05-14T01:17:05;5.33;;;4.57;;
3309;SDS011;1667;53.238;10.394;2023-05-14T01:22:09;5.93;;;4.20;;
3309;SDS011;1667;53.238;10.394;2023-05-14T01:27:09;5.00;;;4.60;;
3309;SDS011;1667;53.238;10.394;2023-05-14T01:32:15;4.53;;;4.17;;
3309;SDS011;1667;53.238;10.394;2023-05-14T01:37:17;5.17;;;4.77;;
3309;SDS011;1667;53.238;10.394;2023-05-14T01:42:17;5.83;;;4.67;;
3309;SDS011;1667;53.238;10.394;2023-05-14T01:47:15;4.57;;;4.17;;
3309;SDS011;1667;53.238;10.394;2023-05-14T01:52:14;6.27;;;5.67;;
3309;SDS011;1667;53.238;10.394;2023-05-14T01:57:18;5.80;;;5.20;;
3309;SDS011;1667;53.238;10.394;2023-05-14T02:02:17;7.43;;;5.80;;
3309;SDS011;1667;53.238;10.394;2023-05-14T02:07:15;5.97;;;4.70;;
3309;SDS011;1667;53.238;10.394;2023-05-14T02:12:14;4.87;;;4.47;;
3309;SDS011;1667;53.238;10.394;2023-05-14T02:17:14;8.13;;;5.97;;
3309;SDS011;1667;53.238;10.394;2023-05-14T02:22:13;6.57;;;5.20;;
3309;SDS011;1667;53.238;10.394;2023-05-14T02:27:12;6.10;;;5.50;;
3309;SDS011;1667;53.238;10.394;2023-05-14T02:32:10;6.07;;;5.47;;
3309;SDS011;1667;53.238;10.394;2023-05-14T02:37:10;5.40;;;4.60;;
3309;SDS011;1667;53.238;10.394;2023-05-14T02:42:08;7.67;;;4.77;;
3309;SDS011;1667;53.238;10.394;2023-05-14T02:47:07;5.63;;;4.93;;
3309;SDS011;1667;53.238;10.394;2023-05-14T02:52:06;5.90;;;5.40;;
3309;SDS011;1667;53.238;10.394;2023-05-14T02:57:06;7.60;;;6.20;;
3309;SDS011;1667;53.238;10.394;2023-05-14T03:02:04;6.83;;;5.50;;
3309;SDS011;1667;53.238;10.394;2023-05-14T03:07:03;5.67;;;5.20;;
3309;SDS011;1667;53.238;10.394;2023-05-14T03:12:02;8.43;;;5.70;;
3309;SDS011;1667;53.238;10.394;2023-05-14T03:17:02;5.83;;;5.33;;
3309;SDS011;1667;53.238;10.394;2023-05-14T03:22:01;5.30;;;4.80;;
3309;SDS011;1667;53.238;10.394;2023-05-14T03:27:00;10.10;;;5.90;;
3309;SDS011;1667;53.238;10.394;2023-05-14T03:31:59;5.83;;;5.23;;
3309;SDS011;1667;53.238;10.394;2023-05-14T03:36:59;10.17;;;7.27;;
3309;SDS011;1667;53.238;10.394;2023-05-14T03:41:58;7.67;;;6.40;;
3309;SDS011;1667;53.238;10.394;2023-05-14T03:46:57;7.50;;;6.03;;
3309;SDS011;1667;53.238;10.394;2023-05-14T03:51:56;6.83;;;5.90;;
3309;SDS011;1667;53.238;10.394;2023-05-14T03:56:56;6.10;;;5.60;;
3309;SDS011;1667;53.238;10.394;2023-05-14T04:01:55;6.13;;;5.53;;
3309;SDS011;1667;53.238;10.394;2023-05-14T04:06:54;6.30;;;5.67;;
3309;SDS011;1667;53.238;10.394;2023-05-14T04:11:53;6.30;;;5.23;;
3309;SDS011;1667;53.238;10.394;2023-05-14T04:16:53;6.10;;;5.60;;
3309;SDS011;1667;53.238;10.394;2023-05-14T04:21:51;10.47;;;5.70;;
3309;SDS011;1667;53.238;10.394;2023-05-14T04:26:49;8.33;;;6.63;;
3309;SDS011;1667;53.238;10.394;2023-05-14T04:31:48;6.77;;;6.00;;
3309;SDS011;1667;53.238;10.394;2023-05-14T04:36:48;7.30;;;6.57;;
3309;SDS011;1667;53.238;10.394;2023-05-14T04:41:47;9.20;;;6.77;;
3309;SDS011;1667;53.238;10.394;2023-05-14T04:46:46;8.87;;;6.30;;
3309;SDS011;1667;53.238;10.394;2023-05-14T04:51:44;4.73;;;4.30;;
3309;SDS011;1667;53.238;10.394;2023-05-14T04:56:45;5.47;;;4.97;;
3309;SDS011;1667;53.238;10.394;2023-05-14T05:01:43;7.00;;;6.30;;
3309;SDS011;1667;53.238;10.394;2023-05-14T05:06:42;7.63;;;6.70;;
3309;SDS011;1667;53.238;10.394;2023-05-14T05:11:40;8.57;;;6.73;;
3309;SDS011;1667;53.238;10.394;2023-05-14T05:16:40;10.70;;;7.20;;
3309;SDS011;1667;53.238;10.394;2023-05-14T05:21:38;11.10;;;6.40;;
3309;SDS011;1667;53.238;10.394;2023-05-14T05:26:37;6.90;;;6.10;;
3309;SDS011;1667;53.238;10.394;2023-05-14T05:31:35;6.63;;;5.93;;
3309;SDS011;1667;53.238;10.394;2023-05-14T05:36:35;7.37;;;6.00;;
3309;SDS011;1667;53.238;10.394;2023-05-14T05:41:34;6.43;;;5.80;;
3309;SDS011;1667;53.238;10.394;2023-05-14T05:46:32;7.03;;;6.33;;
3309;SDS011;1667;53.238;10.394;2023-05-14T05:51:31;8.67;;;6.77;;
3309;SDS011;1667;53.238;10.394;2023-05-14T05:56:30;5.67;;;5.17;;
3309;SDS011;1667;53.238;10.394;2023-05-14T06:01:29;7.80;;;6.27;;
3309;SDS011;1667;53.238;10.394;2023-05-14T06:06:27;7.03;;;6.40;;
3309;SDS011;1667;53.238;10.394;2023-05-14T06:11:28;8.20;;;6.93;;
3309;SDS011;1667;53.238;10.394;2023-05-14T06:16:28;10.17;;;6.77;;
3309;SDS011;1667;53.238;10.394;2023-05-14T06:21:27;8.80;;;7.60;;
3309;SDS011;1667;53.238;10.394;2023-05-14T06:26:26;7.00;;;6.27;;
3309;SDS011;1667;53.238;10.394;2023-05-14T06:31:24;7.33;;;6.63;;
3309;SDS011;1667;53.238;10.394;2023-05-14T06:36:24;8.77;;;6.60;;
3309;SDS011;1667;53.238;10.394;2023-05-14T06:41:22;6.90;;;6.20;;
3309;SDS011;1667;53.238;10.394;2023-05-14T06:46:21;6.50;;;5.87;;
3309;SDS011;1667;53.238;10.394;2023-05-14T06:51:20;7.13;;;5.77;;
3309;SDS011;1667;53.238;10.394;2023-05-14T06:56:21;6.13;;;5.63;;
3309;SDS011;1667;53.238;10.394;2023-05-14T07:01:19;5.60;;;5.10;;
3309;SDS011;1667;53.238;10.394;2023-05-14T07:06:18;6.03;;;5.43;;
3309;SDS011;1667;53.238;10.394;2023-05-14T07:11:16;6.10;;;5.60;;
3309;SDS011;1667;53.238;10.394;2023-05-14T07:16:16;5.00;;;4.60;;
3309;SDS011;1667;53.238;10.394;2023-05-14T07:21:14;4.83;;;4.43;;
3309;SDS011;1667;53.238;10.394;2023-05-14T07:26:13;6.43;;;4.10;;
3309;SDS011;1667;53.238;10.394;2023-05-14T07:31:11;4.10;;;3.80;;
3309;SDS011;1667;53.238;10.394;2023-05-14T07:36:11;3.53;;;3.33;;
3309;SDS011;1667;53.238;10.394;2023-05-14T07:41:10;5.33;;;3.50;;
3309;SDS011;1667;53.238;10.394;2023-05-14T07:46:08;4.07;;;3.30;;
3309;SDS011;1667;53.238;10.394;2023-05-14T07:51:07;4.33;;;3.67;;
3309;SDS011;1667;53.238;10.394;2023-05-14T07:56:07;3.30;;;3.10;;
3309;SDS011;1667;53.238;10.394;2023-05-14T08:01:05;3.33;;;3.03;;
3309;SDS011;1667;53.238;10.394;2023-05-14T08:06:04;4.83;;;3.13;;
3309;SDS011;1667;53.238;10.394;2023-05-14T08:11:03;3.50;;;3.23;;
3309;SDS011;1667;53.238;10.394;2023-05-14T08:16:03;4.73;;;3.47;;
3309;SDS011;1667;53.238;10.394;2023-05-14T08:21:02;3.83;;;3.53;;
3309;SDS011;1667;53.238;10.394;2023-05-14T08:26:01;2.97;;;2.77;;
3309;SDS011;1667;53.238;10.394;2023-05-14T08:31:00;3.30;;;3.00;;
3309;SDS011;1667;53.238;10.394;2023-05-14T08:36:00;4.60;;;3.73;;
3309;SDS011;1667;53.238;10.394;2023-05-14T08:40:58;4.00;;;3.50;;
3309;SDS011;1667;53.238;10.394;2023-05-14T08:45:58;5.20;;;4.30;;
3309;SDS011;1667;53.238;10.394;2023-05-14T08:50:59;4.03;;;3.73;;
3309;SDS011;1667;53.238;10.394;2023-05-14T08:55:59;3.43;;;3.10;;
3309;SDS011;1667;53.238;10.394;2023-05-14T09:00:58;4.07;;;3.77;;
3309;SDS011;1667;53.238;10.394;2023-05-14T09:05:56;3.93;;;3.40;;
3309;SDS011;1667;53.238;10.394;2023-05-14T09:10:57;3.60;;;3.30;;
3309;SDS011;1667;53.238;10.394;2023-05-14T09:15:55;4.07;;;3.47;;
3309;SDS011;1667;53.238;10.394;2023-05-14T09:20:56;4.00;;;3.70;;
3309;SDS011;1667;53.238;10.394;2023-05-14T09:25:55;4.40;;;3.17;;
3309;SDS011;1667;53.238;10.394;2023-05-14T09:30:54;3.30;;;3.10;;
3309;SDS011;1667;53.238;10.394;2023-05-14T09:35:54;4.37;;;4.00;;
3309;SDS011;1667;53.238;10.394;2023-05-14T09:46:25;2.63;;;2.43;;
3309;SDS011;1667;53.238;10.394;2023-05-14T09:51:26;2.77;;;2.50;;
3309;SDS011;1667;53.238;10.394;2023-05-14T09:56:29;3.33;;;3.03;;
3309;SDS011;1667;53.238;10.394;2023-05-14T10:01:27;2.63;;;2.43;;
3309;SDS011;1667;53.238;10.394;2023-05-14T10:06:27;3.47;;;3.03;;
3309;SDS011;1667;53.238;10.394;2023-05-14T10:11:32;4.93;;;2.90;;
3309;SDS011;1667;53.238;10.394;2023-05-14T10:16:34;2.97;;;2.73;;
3309;SDS011;1667;53.238;10.394;2023-05-14T10:21:39;2.87;;;2.67;;
3309;SDS011;1667;53.238;10.394;2023-05-14T10:26:39;4.07;;;2.80;;
3309;SDS011;1667;53.238;10.394;2023-05-14T10:31:45;4.30;;;3.67;;
3309;SDS011;1667;53.238;10.394;2023-05-14T10:36:45;3.40;;;3.10;;
3309;SDS011;1667;53.238;10.394;2023-05-14T10:41:45;5.70;;;3.30;;
3309;SDS011;1667;53.238;10.394;2023-05-14T10:46:44;3.93;;;3.33;;
3309;SDS011;1667;53.238;10.394;2023-05-14T10:51:42;2.87;;;2.67;;
3309;SDS011;1667;53.238;10.394;2023-05-14T10:56:46;5.20;;;2.60;;
3309;SDS011;1667;53.238;10.394;2023-05-14T11:01:44;3.70;;;3.40;;
3309;SDS011;1667;53.238;10.394;2023-05-14T11:06:44;3.10;;;2.90;;
3309;SDS011;1667;53.238;10.394;2023-05-14T11:11:43;6.70;;;3.57;;
3309;SDS011;1667;53.238;10.394;2023-05-14T11:16:44;2.80;;;2.60;;
3309;SDS011;1667;53.238;10.394;2023-05-14T11:21:43;3.33;;;3.13;;
3309;SDS011;1667;53.238;10.394;2023-05-14T11:26:43;3.90;;;3.03;;
3309;SDS011;1667;53.238;10.394;2023-05-14T11:31:43;3.50;;;3.13;;
3309;SDS011;1667;53.238;10.394;2023-05-14T11:36:42;3.37;;;2.93;;
3309;SDS011;1667;53.238;10.394;2023-05-14T11:41:42;3.10;;;2.90;;
3309;SDS011;1667;53.238;10.394;2023-05-14T11:46:53;6.00;;;3.53;;
3309;SDS011;1667;53.238;10.394;2023-05-14T11:51:55;3.93;;;3.33;;
3309;SDS011;1667;53.238;10.394;2023-05-14T11:56:54;3.93;;;3.53;;
3309;SDS011;1667;53.238;10.394;2023-05-14T12:01:55;3.83;;;3.53;;
3309;SDS011;1667;53.238;10.394;2023-05-14T12:06:56;3.73;;;3.40;;
3309;SDS011;1667;53.238;10.394;2023-05-14T12:11:55;4.03;;;3.63;;
3309;SDS011;1667;53.238;10.394;2023-05-14T12:16:54;4.20;;;3.80;;
3309;SDS011;1667;53.238;10.394;2023-05-14T12:21:53;3.30;;;3.10;;
3309;SDS011;1667;53.238;10.394;2023-05-14T12:26:52;5.57;;;4.57;;
3309;SDS011;1667;53.238;10.394;2023-05-14T12:31:50;3.50;;;3.23;;
3309;SDS011;1667;53.238;10.394;2023-05-14T12:36:50;3.17;;;2.90;;
3309;SDS011;1667;53.238;10.394;2023-05-14T12:41:49;3.83;;;3.40;;
3309;SDS011;1667;53.238;10.394;2023-05-14T12:46:47;4.00;;;3.30;;
3309;SDS011;1667;53.238;10.394;2023-05-14T12:51:46;3.77;;;3.23;;
3309;SDS011;1667;53.238;10.394;2023-05-14T12:56:51;3.73;;;3.43;;
3309;SDS011;1667;53.238;10.394;2023-05-14T13:01:49;3.73;;;3.43;;
3309;SDS011;1667;53.238;10.394;2023-05-14T13:06:48;5.80;;;3.80;;
3309;SDS011;1667;53.238;10.394;2023-05-14T13:11:47;4.03;;;3.73;;
3309;SDS011;1667;53.238;10.394;2023-05-14T13:16:47;4.37;;;3.80;;
3309;SDS011;1667;53.238;10.394;2023-05-14T13:21:45;3.47;;;3.17;;
3309;SDS011;1667;53.238;10.394;2023-05-14T13:26:44;4.40;;;3.87;;
3309;SDS011;1667;53.238;10.394;2023-05-14T13:31:42;3.90;;;3.33;;
3309;SDS011;1667;53.238;10.394;2023-05-14T13:36:42;4.73;;;3.67;;
3309;SDS011;1667;53.238;10.394;2023-05-14T13:41:42;3.67;;;3.40;;
3309;SDS011;1667;53.238;10.394;2023-05-14T13:46:41;5.17;;;3.40;;
3309;SDS011;1667;53.238;10.394;2023-05-14T13:51:41;4.33;;;3.90;;
3309;SDS011;1667;53.238;10.394;2023-05-14T13:56:40;4.47;;;3.63;;
3309;SDS011;1667;53.238;10.394;2023-05-14T14:01:39;3.73;;;3.43;;
3309;SDS011;1667;53.238;10.394;2023-05-14T14:06:38;3.53;;;3.23;;
3309;SDS011;1667;53.238;10.394;2023-05-14T14:11:38;6.20;;;3.60;;
3309;SDS011;1667;53.238;10.394;2023-05-14T14:16:37;3.67;;;3.37;;
3309;SDS011;1667;53.238;10.394;2023-05-14T14:21:36;4.73;;;3.77;;
3309;SDS011;1667;53.238;10.394;2023-05-14T14:26:35;5.60;;;3.80;;
3309;SDS011;1667;53.238;10.394;2023-05-14T14:31:35;3.77;;;3.47;;
3309;SDS011;1667;53.238;10.394;2023-05-14T14:36:33;3.40;;;3.10;;
3309;SDS011;1667;53.238;10.394;2023-05-14T14:41:32;5.70;;;3.90;;
3309;SDS011;1667;53.238;10.394;2023-05-14T14:46:30;3.40;;;3.10;;
3309;SDS011;1667;53.238;10.394;2023-05-14T14:51:31;3.97;;;3.20;;
3309;SDS011;1667;53.238;10.394;2023-05-14T14:56:29;5.13;;;3.67;;
3309;SDS011;1667;53.238;10.394;2023-05-14T15:01:28;4.03;;;3.50;;
3309;SDS011;1667;53.238;10.394;2023-05-14T15:06:27;4.87;;;3.63;;
3309;SDS011;1667;53.238;10.394;2023-05-14T15:11:27;6.80;;;3.37;;
3309;SDS011;1667;53.238;10.394;2023-05-14T15:16:25;5.27;;;3.70;;
3309;SDS011;1667;53.238;10.394;2023-05-14T15:21:24;3.90;;;3.60;;
3309;SDS011;1667;53.238;10.394;2023-05-14T15:26:23;4.33;;;3.00;;
3309;SDS011;1667;53.238;10.394;2023-05-14T15:31:23;8.63;;;4.07;;
3309;SDS011;1667;53.238;10.394;2023-05-14T15:36:22;4.87;;;3.83;;
3309;SDS011;1667;53.238;10.394;2023-05-14T15:41:20;5.17;;;4.03;;
3309;SDS011;1667;53.238;10.394;2023-05-14T15:46:20;8.03;;;3.83;;
3309;SDS011;1667;53.238;10.394;2023-05-14T15:51:21;5.43;;;3.50;;
3309;SDS011;1667;53.238;10.394;2023-05-14T15:56:19;4.10;;;3.70;;
3309;SDS011;1667;53.238;10.394;2023-05-14T16:01:18;6.20;;;4.13;;
3309;SDS011;1667;53.238;10.394;2023-05-14T16:06:18;5.80;;;3.83;;
3309;SDS011;1667;53.238;10.394;2023-05-14T16:11:16;4.50;;;4.20;;
3309;SDS011;1667;53.238;10.394;2023-05-14T16:16:15;4.77;;;4.20;;
3309;SDS011;1667;53.238;10.394;2023-05-14T16:21:15;10.57;;;4.33;;
3309;SDS011;1667;53.238;10.394;2023-05-14T16:26:15;5.93;;;3.60;;
3309;SDS011;1667;53.238;10.394;2023-05-14T16:31:13;6.63;;;3.53;;
3309;SDS011;1667;53.238;10.394;2023-05-14T16:36:11;5.77;;;4.47;;
3309;SDS011;1667;53.238;10.394;2023-05-14T16:41:10;7.33;;;3.87;;
3309;SDS011;1667;53.238;10.394;2023-05-14T16:46:10;7.40;;;4.30;;
3309;SDS011;1667;53.238;10.394;2023-05-14T16:51:09;4.20;;;3.90;;
3309;SDS011;1667;53.238;10.394;2023-05-14T16:56:07;5.40;;;4.27;;
3309;SDS011;1667;53.238;10.394;2023-05-14T17:01:06;6.83;;;4.23;;
3309;SDS011;1667;53.238;10.394;2023-05-14T17:06:07;4.63;;;3.83;;
3309;SDS011;1667;53.238;10.394;2023-05-14T17:11:05;7.90;;;3.83;;
3309;SDS011;1667;53.238;10.394;2023-05-14T17:16:04;4.50;;;3.70;;
3309;SDS011;1667;53.238;10.394;2023-05-14T17:21:03;4.93;;;3.90;;
3309;SDS011;1667;53.238;10.394;2023-05-14T17:26:04;4.70;;;4.20;;
3309;SDS011;1667;53.238;10.394;2023-05-14T17:31:03;4.80;;;3.70;;
3309;SDS011;1667;53.238;10.394;2023-05-14T17:36:01;5.30;;;3.70;;
3309;SDS011;1667;53.238;10.394;2023-05-14T17:41:00;5.63;;;3.50;;
3309;SDS011;1667;53.238;10.394;2023-05-14T17:46:00;6.73;;;4.23;;
3309;SDS011;1667;53.238;10.394;2023-05-14T17:50:58;4.73;;;4.20;;
3309;SDS011;1667;53.238;10.394;2023-05-14T17:55:57;6.03;;;3.97;;
3309;SDS011;1667;53.238;10.394;2023-05-14T18:00:56;6.73;;;4.07;;
3309;SDS011;1667;53.238;10.394;2023-05-14T18:05:56;3.63;;;3.33;;
3309;SDS011;1667;53.238;10.394;2023-05-14T18:10:56;5.50;;;4.27;;
3309;SDS011;1667;53.238;10.394;2023-05-14T18:15:56;7.50;;;4.37;;
3309;SDS011;1667;53.238;10.394;2023-05-14T18:20:57;4.30;;;3.50;;
3309;SDS011;1667;53.238;10.394;2023-05-14T18:25:55;4.93;;;4.27;;
3309;SDS011;1667;53.238;10.394;2023-05-14T18:30:54;4.27;;;3.97;;
3309;SDS011;1667;53.238;10.394;2023-05-14T18:35:53;3.77;;;3.47;;
3309;SDS011;1667;53.238;10.394;2023-05-14T18:40:53;4.63;;;3.90;;
3309;SDS011;1667;53.238;10.394;2023-05-14T18:45:51;4.53;;;4.13;;
3309;SDS011;1667;53.238;10.394;2023-05-14T18:50:50;7.80;;;4.03;;
3309;SDS011;1667;53.238;10.394;2023-05-14T18:55:49;7.20;;;4.20;;
3309;SDS011;1667;53.238;10.394;2023-05-14T19:00:49;6.57;;;4.03;;
3309;SDS011;1667;53.238;10.394;2023-05-14T19:05:48;10.17;;;4.17;;
3309;SDS011;1667;53.238;10.394;2023-05-14T19:10:47;5.87;;;4.37;;
3309;SDS011;1667;53.238;10.394;2023-05-14T19:15:46;4.20;;;3.80;;
3309;SDS011;1667;53.238;10.394;2023-05-14T19:20:46;7.97;;;4.50;;
3309;SDS011;1667;53.238;10.394;2023-05-14T19:25:45;4.80;;;4.10;;
3309;SDS011;1667;53.238;10.394;2023-05-14T19:30:44;6.50;;;4.50;;
3309;SDS011;1667;53.238;10.394;2023-05-14T19:35:44;7.40;;;4.30;;
3309;SDS011;1667;53.238;10.394;2023-05-14T19:40:43;4.57;;;4.13;;
3309;SDS011;1667;53.238;10.394;2023-05-14T19:45:43;4.83;;;3.93;;
3309;SDS011;1667;53.238;10.394;2023-05-14T19:50:41;5.67;;;4.50;;
3309;SDS011;1667;53.238;10.394;2023-05-14T19:55:41;4.50;;;4.10;;
3309;SDS011;1667;53.238;10.394;2023-05-14T20:00:40;5.70;;;4.30;;
3309;SDS011;1667;53.238;10.394;2023-05-14T20:05:38;4.33;;;3.93;;
3309;SDS011;1667;53.238;10.394;2023-05-14T20:10:37;4.40;;;3.63;;
3309;SDS011;1667;53.238;10.394;2023-05-14T20:15:38;4.40;;;4.00;;
3309;SDS011;1667;53.238;10.394;2023-05-14T20:20:37;8.13;;;4.73;;
3309;SDS011;1667;53.238;10.394;2023-05-14T20:25:36;5.33;;;4.40;;
3309;SDS011;1667;53.238;10.394;2023-05-14T20:30:35;5.60;;;4.70;;
3309;SDS011;1667;53.238;10.394;2023-05-14T20:35:35;5.30;;;4.80;;
3309;SDS011;1667;53.238;10.394;2023-05-14T20:40:33;6.43;;;4.40;;
3309;SDS011;1667;53.238;10.394;2023-05-14T20:45:32;7.47;;;5.07;;
3309;SDS011;1667;53.238;10.394;2023-05-14T20:50:31;6.63;;;4.47;;
3309;SDS011;1667;53.238;10.394;2023-05-14T20:55:31;7.20;;;4.40;;
3309;SDS011;1667;53.238;10.394;2023-05-14T21:00:29;6.70;;;5.13;;
3309;SDS011;1667;53.238;10.394;2023-05-14T21:05:28;6.77;;;4.60;;
3309;SDS011;1667;53.238;10.394;2023-05-14T21:10:26;5.33;;;4.83;;
3309;SDS011;1667;53.238;10.394;2023-05-14T21:15:26;6.40;;;4.77;;
3309;SDS011;1667;53.238;10.394;2023-05-14T21:20:26;10.30;;;5.50;;
3309;SDS011;1667;53.238;10.394;2023-05-14T21:25:24;6.10;;;4.70;;
3309;SDS011;1667;53.238;10.394;2023-05-14T21:30:23;7.07;;;5.17;;
3309;SDS011;1667;53.238;10.394;2023-05-14T21:35:23;5.67;;;4.90;;
3309;SDS011;1667;53.238;10.394;2023-05-14T21:40:22;8.83;;;5.13;;
3309;SDS011;1667;53.238;10.394;2023-05-14T21:45:20;5.27;;;4.43;;
3309;SDS011;1667;53.238;10.394;2023-05-14T21:50:19;10.00;;;6.07;;
3309;SDS011;1667;53.238;10.394;2023-05-14T21:55:19;5.23;;;4.77;;
3309;SDS011;1667;53.238;10.394;2023-05-14T22:00:18;5.23;;;4.83;;
3309;SDS011;1667;53.238;10.394;2023-05-14T22:05:19;8.30;;;5.70;;
3309;SDS011;1667;53.238;10.394;2023-05-14T22:10:19;8.70;;;6.23;;
3309;SDS011;1667;53.238;10.394;2023-05-14T22:15:17;6.50;;;5.27;;
3309;SDS011;1667;53.238;10.394;2023-05-14T22:20:16;7.30;;;4.70;;
3309;SDS011;1667;53.238;10.394;2023-05-14T22:25:15;7.93;;;5.67;;
3309;SDS011;1667;53.238;10.394;2023-05-14T22:30:15;6.23;;;4.97;;
3309;SDS011;1667;53.238;10.394;2023-05-14T22:35:14;5.50;;;4.70;;
3309;SDS011;1667;53.238;10.394;2023-05-14T22:40:12;5.40;;;4.87;;
3309;SDS011;1667;53.238;10.394;2023-05-14T22:45:11;8.37;;;5.40;;
3309;SDS011;1667;53.238;10.394;2023-05-14T22:56:53;8.20;;;5.70;;
3309;SDS011;1667;53.238;10.394;2023-05-14T23:01:51;8.00;;;5.93;;
3309;SDS011;1667;53.238;10.394;2023-05-14T23:06:50;12.47;;;5.40;;
3309;SDS011;1667;53.238;10.394;2023-05-14T23:11:49;6.70;;;5.30;;
3309;SDS011;1667;53.238;10.394;2023-05-14T23:16:49;5.97;;;4.77;;
3309;SDS011;1667;53.238;10.394;2023-05-14T23:21:47;4.97;;;4.47;;
3309;SDS011;1667;53.238;10.394;2023-05-14T23:26:46;10.83;;;5.70;;
3309;SDS011;1667;53.238;10.394;2023-05-14T23:31:44;6.10;;;5.50;;
3309;SDS011;1667;53.238;10.394;2023-05-14T23:36:44;8.00;;;5.67;;
3309;SDS011;1667;53.238;10.394;2023-05-14T23:41:42;8.73;;;5.97;;
3309;SDS011;1667;53.238;10.394;2023-05-14T23:46:41;10.40;;;5.63;;
3309;SDS011;1667;53.238;10.394;2023-05-14T23:51:40;6.10;;;5.50;;
3309;SDS011;1667;53.238;10.394;2023-05-14T23:56:40;6.80;;;5.40;;
